Terminal Aerodrome Forecast
Issued by NWS Austin/San Antonio, TX

Home | Current Version | Previous Version | Text Only | Print | Product List | Glossary On
Versions: 1 2 3 4 5 6 7 8 9 10 11 12 13 14 15 16 17 18
000
FTUS44 KEWX 291720
TAFAUS
TAF
KAUS 291720Z 2918/3024 18008KT P6SM FEW070
     FM300900 22003KT P6SM FEW015
      TEMPO 3011/3013 5SM BR
     FM301800 16007KT P6SM FEW070=

USA.gov is the U.S. government's official web portal to all federal, state and local government web resources and services.